createdAt,value
2023-02-11T00:01:40.921Z,37.30
2023-02-11T00:04:08.953Z,38.00
2023-02-11T00:06:37.039Z,35.50
2023-02-11T00:09:05.333Z,35.70
2023-02-11T00:11:33.458Z,41.50
2023-02-11T00:14:03.466Z,38.20
2023-02-11T00:16:34.757Z,39.30
2023-02-11T00:19:03.296Z,38.80
2023-02-11T00:21:31.358Z,38.00
2023-02-11T00:24:02.317Z,44.20
2023-02-11T00:26:32.749Z,42.40
2023-02-11T00:29:01.058Z,43.40
2023-02-11T00:31:29.324Z,32.40
2023-02-11T00:33:57.836Z,34.60
2023-02-11T00:36:27.414Z,39.90
2023-02-11T00:38:56.003Z,40.40
2023-02-11T00:41:24.216Z,41.10
2023-02-11T00:43:52.770Z,38.70
2023-02-11T00:46:20.922Z,37.90
2023-02-11T00:48:49.457Z,29.30
2023-02-11T00:51:17.698Z,36.90
2023-02-11T00:53:45.664Z,39.10
2023-02-11T00:56:13.708Z,41.50
2023-02-11T00:58:41.735Z,36.40
2023-02-11T01:01:09.803Z,37.90
2023-02-11T01:03:37.790Z,33.50
2023-02-11T01:06:06.646Z,37.60
2023-02-11T01:08:39.122Z,31.20
2023-02-11T01:11:11.317Z,34.80
2023-02-11T01:13:39.387Z,29.20
2023-02-11T01:16:07.885Z,34.70
2023-02-11T01:18:36.092Z,42.70
2023-02-11T01:21:04.273Z,36.60
2023-02-11T01:23:32.533Z,39.20
2023-02-11T01:26:00.552Z,31.30
2023-02-11T01:28:30.321Z,32.90
2023-02-11T01:31:01.344Z,36.10
2023-02-11T01:33:29.405Z,31.10
2023-02-11T01:36:03.122Z,34.20
2023-02-11T01:38:31.356Z,31.40
2023-02-11T01:41:01.994Z,30.30
2023-02-11T01:43:33.707Z,28.30
2023-02-11T01:46:15.493Z,32.70
2023-02-11T01:48:46.037Z,29.40
2023-02-11T01:51:20.794Z,36.30
2023-02-11T01:54:07.548Z,27.10
2023-02-11T01:56:56.083Z,39.60
2023-02-11T01:59:27.566Z,28.30
2023-02-11T02:01:57.938Z,36.30
2023-02-11T02:04:31.738Z,34.20
2023-02-11T02:07:04.283Z,28.30
2023-02-11T02:09:35.812Z,27.80
2023-02-11T02:12:05.584Z,32.90
2023-02-11T02:14:34.198Z,29.60
2023-02-11T02:17:02.469Z,35.90
2023-02-11T02:20:02.085Z,35.10
2023-02-11T02:22:47.379Z,31.60
2023-02-11T02:25:40.506Z,30.50
2023-02-11T02:28:16.697Z,31.30
2023-02-11T02:31:03.280Z,32.90
2023-02-11T02:33:38.605Z,28.70
2023-02-11T02:36:34.184Z,25.40
2023-02-11T02:39:15.968Z,27.60
2023-02-11T02:41:44.092Z,24.50
2023-02-11T02:44:12.175Z,29.30
2023-02-11T02:46:40.290Z,30.10
2023-02-11T02:49:13.346Z,32.80
2023-02-11T02:52:00.174Z,29.50
2023-02-11T02:54:28.159Z,36.70
2023-02-11T02:57:11.371Z,26.00
2023-02-11T02:59:58.229Z,34.60
2023-02-11T03:02:46.281Z,37.90
2023-02-11T03:05:34.318Z,26.40
2023-02-11T03:08:11.255Z,34.20
2023-02-11T03:10:42.071Z,32.40
2023-02-11T03:13:10.302Z,30.20
2023-02-11T03:15:43.678Z,35.50
2023-02-11T03:18:13.907Z,31.20
2023-02-11T03:20:42.698Z,32.90
2023-02-11T03:23:21.935Z,28.50
2023-02-11T03:25:58.765Z,38.00
2023-02-11T03:28:31.723Z,30.30
2023-02-11T03:31:11.014Z,35.80
2023-02-11T03:33:45.670Z,38.50
2023-02-11T03:36:17.839Z,30.90
2023-02-11T03:38:48.920Z,36.00
2023-02-11T03:41:18.424Z,33.20
2023-02-11T03:43:49.403Z,34.50
2023-02-11T03:46:19.057Z,39.90
2023-02-11T03:48:53.042Z,34.30
2023-02-11T03:51:21.073Z,34.00
2023-02-11T03:53:49.088Z,34.80
2023-02-11T03:56:22.043Z,36.40
2023-02-11T03:58:50.051Z,36.80
2023-02-11T04:01:18.131Z,39.10
2023-02-11T04:03:46.141Z,38.30
2023-02-11T04:06:14.225Z,34.50
2023-02-11T04:08:42.251Z,29.00
2023-02-11T04:11:10.198Z,40.90
2023-02-11T04:13:38.170Z,35.20
2023-02-11T04:16:06.346Z,42.80
2023-02-11T04:18:34.496Z,47.70
2023-02-11T04:21:02.523Z,47.50
2023-02-11T04:23:30.553Z,40.80
2023-02-11T04:25:58.672Z,34.70
2023-02-11T04:28:29.482Z,34.90
2023-02-11T04:30:57.908Z,35.50
2023-02-11T04:33:26.159Z,37.10
2023-02-11T04:35:54.304Z,46.20
2023-02-11T04:38:24.325Z,36.90
2023-02-11T04:40:52.330Z,39.80
2023-02-11T04:43:20.409Z,38.70
2023-02-11T04:45:48.867Z,42.70
2023-02-11T04:48:17.232Z,38.90
2023-02-11T04:50:45.239Z,37.40
2023-02-11T04:53:13.300Z,39.30
2023-02-11T04:55:41.401Z,44.20
2023-02-11T04:58:09.364Z,41.10
2023-02-11T05:00:37.353Z,43.10
2023-02-11T05:03:05.388Z,42.30
2023-02-11T05:05:33.558Z,40.60
2023-02-11T05:08:01.574Z,44.70
2023-02-11T05:10:29.729Z,48.00
2023-02-11T05:12:57.847Z,36.60
2023-02-11T05:15:25.982Z,44.80
2023-02-11T05:17:53.987Z,45.40
2023-02-11T05:20:22.070Z,41.10
2023-02-11T05:22:50.181Z,41.80
2023-02-11T05:25:18.773Z,41.40
2023-02-11T05:27:46.822Z,44.30
2023-02-11T05:30:15.124Z,45.00
2023-02-11T05:32:43.127Z,39.40
2023-02-11T05:35:11.219Z,49.30
2023-02-11T05:37:39.472Z,50.00
2023-02-11T05:40:08.037Z,37.70
2023-02-11T05:42:36.089Z,47.50
2023-02-11T05:45:04.497Z,42.40
2023-02-11T05:47:32.692Z,39.30
2023-02-11T05:50:00.640Z,49.00
2023-02-11T05:52:28.742Z,49.90
2023-02-11T05:54:56.757Z,48.90
2023-02-11T05:57:24.735Z,39.90
2023-02-11T05:59:52.851Z,51.50
2023-02-11T06:02:20.936Z,55.90
2023-02-11T06:04:49.147Z,52.20
2023-02-11T06:07:17.744Z,47.80
2023-02-11T06:09:45.826Z,50.90
2023-02-11T06:12:14.081Z,49.30
2023-02-11T06:14:42.323Z,54.40
2023-02-11T06:17:10.395Z,49.00
2023-02-11T06:19:38.600Z,42.40
2023-02-11T06:22:06.756Z,48.30
2023-02-11T06:24:58.527Z,44.60
2023-02-11T06:27:22.795Z,45.90
2023-02-11T06:29:52.632Z,42.20
2023-02-11T06:32:42.116Z,50.00
2023-02-11T06:35:11.432Z,50.10
2023-02-11T06:37:41.140Z,59.20
2023-02-11T06:40:10.315Z,63.10
2023-02-11T06:42:41.775Z,56.20
2023-02-11T06:45:11.237Z,70.20
2023-02-11T06:47:40.184Z,56.10
2023-02-11T06:50:09.077Z,53.90
2023-02-11T06:52:37.165Z,47.60
2023-02-11T06:55:05.395Z,52.90
2023-02-11T06:57:33.556Z,49.90
2023-02-11T07:00:01.626Z,49.50
2023-02-11T07:02:29.728Z,48.90
2023-02-11T07:04:57.994Z,41.30
2023-02-11T07:07:26.011Z,53.40
2023-02-11T07:09:54.073Z,50.80
2023-02-11T07:12:22.194Z,45.20
2023-02-11T07:14:50.204Z,51.40
2023-02-11T07:17:18.206Z,55.30
2023-02-11T07:19:46.221Z,42.80
2023-02-11T07:22:14.284Z,46.50
2023-02-11T07:24:42.448Z,46.90
2023-02-11T07:27:10.568Z,52.60
2023-02-11T07:29:38.848Z,51.20
2023-02-11T07:32:06.858Z,50.60
2023-02-11T07:34:35.614Z,45.80
2023-02-11T07:37:03.717Z,47.70
2023-02-11T07:39:31.738Z,46.90
2023-02-11T07:42:00.289Z,47.00
2023-02-11T07:44:28.922Z,38.80
2023-02-11T07:46:56.975Z,43.70
2023-02-11T07:49:25.372Z,49.90
2023-02-11T07:51:53.817Z,47.50
2023-02-11T07:54:22.219Z,35.90
2023-02-11T07:56:50.277Z,48.30
2023-02-11T07:59:18.218Z,40.90
2023-02-11T08:01:46.283Z,43.00
2023-02-11T08:04:14.302Z,39.40
2023-02-11T08:06:43.011Z,39.70
2023-02-11T08:09:16.209Z,39.00
2023-02-11T08:11:44.292Z,39.00
2023-02-11T08:14:12.540Z,44.30
2023-02-11T08:16:40.815Z,28.20
2023-02-11T08:19:12.311Z,38.50
2023-02-11T08:21:40.433Z,36.40
2023-02-11T08:24:08.569Z,36.10
2023-02-11T08:26:36.725Z,34.60
2023-02-11T08:29:08.730Z,32.40
2023-02-11T08:31:38.580Z,35.10
2023-02-11T08:34:06.685Z,36.90
2023-02-11T08:36:36.530Z,39.20
2023-02-11T08:39:18.690Z,39.70
2023-02-11T08:41:49.709Z,40.80
2023-02-11T08:44:22.808Z,30.10
2023-02-11T08:46:56.527Z,39.50
2023-02-11T08:49:26.025Z,36.90
2023-02-11T08:51:56.416Z,40.60
2023-02-11T08:54:24.552Z,44.30
2023-02-11T08:56:52.567Z,35.00
2023-02-11T08:59:20.536Z,43.30
2023-02-11T09:01:48.750Z,31.30
2023-02-11T09:04:16.953Z,41.60
2023-02-11T09:06:45.264Z,46.30
2023-02-11T09:09:14.418Z,40.70
2023-02-11T09:11:43.607Z,43.80
2023-02-11T09:14:22.802Z,41.80
2023-02-11T09:16:51.945Z,43.10
2023-02-11T09:19:20.208Z,43.90
2023-02-11T09:21:48.599Z,36.70
2023-02-11T09:24:16.650Z,33.60
2023-02-11T09:26:44.671Z,38.40
2023-02-11T09:29:13.001Z,42.30
2023-02-11T09:31:41.335Z,38.80
2023-02-11T09:34:11.358Z,40.60
2023-02-11T09:36:40.500Z,35.40
2023-02-11T09:39:12.385Z,29.90
2023-02-11T09:42:02.572Z,43.10
2023-02-11T09:44:34.642Z,41.00
2023-02-11T09:47:11.112Z,39.00
2023-02-11T09:49:47.540Z,43.40
2023-02-11T09:52:18.999Z,34.90
2023-02-11T09:54:53.977Z,43.20
2023-02-11T09:57:28.505Z,38.20
2023-02-11T09:59:58.501Z,35.80
2023-02-11T10:02:35.537Z,39.60
2023-02-11T10:05:22.122Z,38.50
2023-02-11T10:08:10.122Z,37.70
2023-02-11T10:10:44.828Z,32.70
2023-02-11T10:13:12.784Z,36.40
2023-02-11T10:16:06.966Z,32.50
2023-02-11T10:19:00.995Z,34.90
2023-02-11T10:21:38.033Z,33.30
2023-02-11T10:24:09.653Z,36.00
2023-02-11T10:26:38.787Z,37.80
2023-02-11T10:29:25.246Z,32.70
2023-02-11T10:31:53.173Z,32.80
2023-02-11T10:34:21.199Z,41.30
2023-02-11T10:36:49.179Z,30.10
2023-02-11T10:39:21.713Z,32.40
2023-02-11T10:41:58.056Z,35.90
2023-02-11T10:44:32.419Z,31.60
2023-02-11T10:47:03.294Z,39.40
2023-02-11T10:49:38.980Z,36.90
2023-02-11T10:52:25.583Z,32.40
2023-02-11T10:55:02.789Z,25.30
2023-02-11T10:57:58.188Z,38.40
2023-02-11T11:00:26.362Z,33.00
2023-02-11T11:02:56.492Z,33.60
2023-02-11T11:05:33.097Z,24.00
2023-02-11T11:08:04.172Z,36.80
2023-02-11T11:10:43.701Z,33.40
2023-02-11T11:13:24.864Z,30.40
2023-02-11T11:16:29.410Z,32.00
2023-02-11T11:19:06.566Z,36.50
2023-02-11T11:22:06.844Z,35.60
2023-02-11T11:24:57.662Z,30.30
2023-02-11T11:27:25.760Z,31.70
2023-02-11T11:29:54.174Z,34.20
2023-02-11T11:32:30.060Z,37.40
2023-02-11T11:35:03.699Z,35.70
2023-02-11T11:37:37.816Z,30.40
2023-02-11T11:40:15.759Z,29.90
2023-02-11T11:42:43.880Z,32.40
2023-02-11T11:45:15.358Z,29.10
2023-02-11T11:47:47.663Z,28.50
2023-02-11T11:50:34.425Z,33.80
2023-02-11T11:53:25.320Z,27.80
2023-02-11T11:56:12.490Z,28.40
2023-02-11T11:58:40.457Z,28.00
2023-02-11T12:01:17.365Z,33.50
2023-02-11T12:04:23.214Z,29.80
2023-02-11T12:06:57.865Z,25.10
2023-02-11T12:09:46.779Z,30.40
2023-02-11T12:12:21.069Z,30.70
2023-02-11T12:15:30.334Z,27.40
2023-02-11T12:18:19.834Z,28.60
2023-02-11T12:20:50.958Z,20.70
2023-02-11T12:24:03.429Z,25.50
2023-02-11T12:26:47.741Z,19.70
2023-02-11T12:29:33.942Z,23.60
2023-02-11T12:32:04.721Z,23.40
2023-02-11T12:35:07.047Z,25.80
2023-02-11T12:37:46.348Z,23.10
2023-02-11T12:40:26.916Z,25.90
2023-02-11T12:43:17.444Z,18.80
2023-02-11T12:46:14.003Z,19.40
2023-02-11T12:48:44.878Z,18.90
2023-02-11T12:51:49.884Z,23.70
2023-02-11T12:54:42.874Z,22.70
2023-02-11T12:57:19.725Z,16.10
2023-02-11T12:59:55.571Z,16.60
2023-02-11T13:02:42.032Z,16.40
2023-02-11T13:05:27.606Z,16.60
2023-02-11T13:08:00.686Z,16.40
2023-02-11T13:10:40.348Z,19.60
2023-02-11T13:13:25.820Z,14.10
2023-02-11T13:16:10.182Z,12.70
2023-02-11T13:18:51.986Z,16.00
2023-02-11T13:21:42.952Z,14.10
2023-02-11T13:24:36.914Z,13.50
2023-02-11T13:27:28.487Z,12.90
2023-02-11T13:29:59.634Z,15.30
2023-02-11T13:32:28.821Z,14.10
2023-02-11T13:34:57.307Z,15.70
2023-02-11T13:37:38.612Z,14.00
2023-02-11T13:40:18.775Z,14.00
2023-02-11T13:42:51.558Z,14.00
2023-02-11T13:46:03.188Z,13.90
2023-02-11T13:48:33.635Z,15.10
2023-02-11T13:51:12.475Z,14.00
2023-02-11T13:53:51.741Z,16.00
2023-02-11T13:56:30.307Z,13.80
2023-02-11T13:59:01.903Z,16.50
2023-02-11T14:02:12.215Z,14.70
2023-02-11T14:05:24.218Z,9.80
2023-02-11T14:08:26.310Z,14.70
2023-02-11T14:10:57.928Z,14.40
2023-02-11T14:13:55.885Z,14.80
2023-02-11T14:16:36.918Z,17.00
2023-02-11T14:19:06.554Z,17.70
2023-02-11T14:21:37.209Z,11.70
2023-02-11T14:24:05.256Z,15.20
2023-02-11T14:26:51.445Z,17.80
2023-02-11T14:29:38.689Z,15.40
2023-02-11T14:32:55.117Z,19.20
2023-02-11T14:35:50.656Z,18.40
2023-02-11T14:38:27.119Z,14.00
2023-02-11T14:41:19.741Z,14.50
2023-02-11T14:43:53.185Z,11.50
2023-02-11T14:46:21.781Z,14.00
2023-02-11T14:48:51.621Z,14.00
2023-02-11T14:51:23.415Z,15.10
2023-02-11T14:53:53.874Z,12.50
2023-02-11T14:56:26.447Z,14.20
2023-02-11T14:58:55.097Z,18.40
2023-02-11T15:01:32.619Z,16.90
2023-02-11T15:04:05.550Z,13.50
2023-02-11T15:06:34.766Z,14.40
2023-02-11T15:09:05.532Z,17.00
2023-02-11T15:11:39.890Z,15.80
2023-02-11T15:14:17.250Z,16.80
2023-02-11T15:16:45.552Z,15.40
2023-02-11T15:19:23.808Z,18.00
2023-02-11T15:21:52.347Z,15.80
2023-02-11T15:24:24.444Z,11.20
2023-02-11T15:27:04.009Z,14.80
2023-02-11T15:29:42.069Z,13.80
2023-02-11T15:32:10.137Z,14.50
2023-02-11T15:34:38.610Z,17.90
2023-02-11T15:37:06.949Z,16.00
2023-02-11T15:39:41.317Z,15.10
2023-02-11T15:42:19.625Z,16.00
2023-02-11T15:44:54.395Z,15.80
2023-02-11T15:47:24.461Z,18.90
2023-02-11T15:49:52.561Z,17.30
2023-02-11T15:52:25.149Z,18.30
2023-02-11T15:54:53.959Z,20.90
2023-02-11T15:57:21.983Z,24.00
2023-02-11T15:59:51.299Z,24.50
2023-02-11T16:02:20.408Z,30.60
2023-02-11T16:04:56.257Z,26.80
2023-02-11T16:07:47.358Z,22.60
2023-02-11T16:10:23.160Z,15.20
2023-02-11T16:13:06.399Z,18.20
2023-02-11T16:15:34.433Z,16.70
2023-02-11T16:18:02.689Z,19.10
2023-02-11T16:20:30.620Z,19.10
2023-02-11T16:22:58.548Z,14.20
2023-02-11T16:25:26.504Z,19.50
2023-02-11T16:27:54.527Z,19.20
2023-02-11T16:30:32.980Z,18.10
2023-02-11T16:33:00.935Z,14.70
2023-02-11T16:35:28.853Z,15.70
2023-02-11T16:37:56.837Z,19.50
2023-02-11T16:40:24.749Z,20.60
2023-02-11T16:42:53.662Z,19.50
2023-02-11T16:45:21.594Z,16.50
2023-02-11T16:47:49.553Z,22.00
2023-02-11T16:50:22.230Z,15.90
2023-02-11T16:52:50.280Z,20.60
2023-02-11T16:55:18.719Z,20.00
2023-02-11T16:57:46.827Z,21.50
2023-02-11T17:00:16.431Z,26.00
2023-02-11T17:02:44.397Z,24.30
2023-02-11T17:05:23.143Z,21.30
2023-02-11T17:07:51.765Z,22.10
2023-02-11T17:10:22.853Z,26.80
2023-02-11T17:12:51.368Z,21.80
2023-02-11T17:15:19.509Z,22.90
2023-02-11T17:17:48.270Z,17.10
2023-02-11T17:20:16.740Z,15.00
2023-02-11T17:22:44.658Z,20.50
2023-02-11T17:25:12.583Z,18.40
2023-02-11T17:27:40.733Z,20.60
2023-02-11T17:30:09.386Z,26.00
2023-02-11T17:32:37.646Z,19.40
2023-02-11T17:35:08.487Z,21.30
2023-02-11T17:37:36.535Z,22.90
2023-02-11T17:40:04.818Z,24.80
2023-02-11T17:42:32.876Z,21.60
2023-02-11T17:45:00.904Z,20.10
2023-02-11T17:47:29.934Z,22.00
2023-02-11T17:49:58.031Z,20.70
2023-02-11T17:52:28.009Z,22.90
2023-02-11T17:54:56.220Z,26.60
2023-02-11T17:57:24.232Z,24.20
2023-02-11T17:59:52.363Z,22.80
2023-02-11T18:02:20.793Z,24.30
2023-02-11T18:04:48.823Z,15.40
2023-02-11T18:07:17.649Z,20.90
2023-02-11T18:09:45.565Z,24.60
2023-02-11T18:12:13.573Z,22.60
2023-02-11T18:14:41.617Z,18.40
2023-02-11T18:17:09.681Z,19.90
2023-02-11T18:19:37.733Z,20.90
2023-02-11T18:22:05.734Z,20.90
2023-02-11T18:24:33.681Z,19.90
2023-02-11T18:27:01.738Z,21.50
2023-02-11T18:29:29.852Z,24.80
2023-02-11T18:31:58.140Z,22.60
2023-02-11T18:34:26.159Z,23.50
2023-02-11T18:36:54.287Z,19.20
2023-02-11T18:39:24.375Z,22.10
2023-02-11T18:41:56.840Z,24.70
2023-02-11T18:44:27.907Z,20.40
2023-02-11T18:46:55.960Z,19.80
2023-02-11T18:49:24.001Z,20.00
2023-02-11T18:51:51.994Z,21.10
2023-02-11T18:54:19.936Z,15.60
2023-02-11T18:56:47.892Z,17.80
2023-02-11T18:59:15.911Z,21.20
2023-02-11T19:01:46.959Z,22.00
2023-02-11T19:04:20.044Z,22.80
2023-02-11T19:06:49.544Z,22.10
2023-02-11T19:09:18.921Z,21.80
2023-02-11T19:11:47.086Z,18.80
2023-02-11T19:14:17.006Z,24.10
2023-02-11T19:16:46.149Z,29.40
2023-02-11T19:19:14.489Z,24.80
2023-02-11T19:21:43.821Z,25.90
2023-02-11T19:24:12.637Z,25.90
2023-02-11T19:26:40.593Z,23.60
2023-02-11T19:29:08.618Z,25.30
2023-02-11T19:31:36.714Z,25.70
2023-02-11T19:34:05.215Z,25.30
2023-02-11T19:36:33.336Z,27.70
2023-02-11T19:39:01.757Z,27.40
2023-02-11T19:41:30.064Z,31.50
2023-02-11T19:43:58.472Z,33.50
2023-02-11T19:46:28.225Z,17.60
2023-02-11T19:48:56.288Z,17.50
2023-02-11T19:51:24.264Z,19.70
2023-02-11T19:53:52.533Z,17.50
2023-02-11T19:56:21.071Z,18.50
2023-02-11T19:58:49.654Z,24.60
2023-02-11T20:01:19.748Z,18.70
2023-02-11T20:03:51.690Z,24.80
2023-02-11T20:06:24.542Z,25.10
2023-02-11T20:08:57.194Z,28.80
2023-02-11T20:11:28.291Z,26.30
2023-02-11T20:13:56.740Z,27.60
2023-02-11T20:16:40.705Z,23.50
2023-02-11T20:19:17.788Z,30.90
2023-02-11T20:21:47.651Z,33.00
2023-02-11T20:24:19.151Z,19.40
2023-02-11T20:26:48.743Z,22.30
2023-02-11T20:29:17.485Z,23.20
2023-02-11T20:31:45.717Z,20.50
2023-02-11T20:34:14.038Z,19.70
2023-02-11T20:36:42.093Z,23.50
2023-02-11T20:39:10.668Z,19.80
2023-02-11T20:41:40.117Z,18.50
2023-02-11T20:44:08.522Z,18.00
2023-02-11T20:46:37.679Z,21.10
2023-02-11T20:49:06.173Z,17.50
2023-02-11T20:51:34.372Z,28.90
2023-02-11T20:54:02.299Z,22.10
2023-02-11T20:56:31.825Z,30.20
2023-02-11T20:59:00.505Z,11.70
2023-02-11T21:01:30.713Z,10.20
2023-02-11T21:04:00.444Z,15.90
2023-02-11T21:06:33.049Z,8.00
2023-02-11T21:09:01.548Z,12.10
2023-02-11T21:11:31.179Z,8.50
2023-02-11T21:13:59.191Z,7.50
2023-02-11T21:16:27.267Z,9.20
2023-02-11T21:18:55.653Z,11.40
2023-02-11T21:21:23.765Z,8.50
2023-02-11T21:23:51.744Z,7.10
2023-02-11T21:26:19.876Z,4.50
2023-02-11T21:28:48.898Z,4.50
2023-02-11T21:31:21.776Z,6.30
2023-02-11T21:33:50.293Z,5.90
2023-02-11T21:36:18.424Z,6.40
2023-02-11T21:38:46.419Z,4.30
2023-02-11T21:41:14.559Z,4.60
2023-02-11T21:43:42.498Z,3.50
2023-02-11T21:46:12.289Z,3.60
2023-02-11T21:48:40.284Z,6.70
2023-02-11T21:51:17.145Z,9.40
2023-02-11T21:53:45.746Z,7.40
2023-02-11T21:56:17.774Z,6.10
2023-02-11T21:58:46.225Z,4.20
2023-02-11T22:01:18.936Z,10.80
2023-02-11T22:03:47.082Z,7.70
2023-02-11T22:06:16.850Z,7.00
2023-02-11T22:08:44.927Z,3.80
2023-02-11T22:11:13.454Z,8.00
2023-02-11T22:13:41.497Z,7.00
2023-02-11T22:16:11.776Z,3.90
2023-02-11T22:18:39.899Z,8.40
2023-02-11T22:21:09.682Z,6.80
2023-02-11T22:23:38.114Z,10.10
2023-02-11T22:26:08.483Z,7.50
2023-02-11T22:28:39.018Z,5.60
2023-02-11T22:31:08.388Z,4.70
2023-02-11T22:33:36.396Z,6.60
2023-02-11T22:36:06.575Z,7.80
2023-02-11T22:38:34.755Z,3.50
2023-02-11T22:41:06.252Z,7.70
2023-02-11T22:43:34.255Z,4.30
2023-02-11T22:46:03.253Z,4.80
2023-02-11T22:48:31.488Z,6.20
2023-02-11T22:51:12.897Z,4.40
2023-02-11T22:53:40.824Z,7.10
2023-02-11T22:56:15.022Z,9.30
2023-02-11T22:58:43.573Z,5.30
2023-02-11T23:01:11.658Z,9.80
2023-02-11T23:03:39.879Z,5.10
2023-02-11T23:06:08.349Z,3.30
2023-02-11T23:08:37.412Z,4.80
2023-02-11T23:11:10.557Z,5.10
2023-02-11T23:13:39.338Z,5.70
2023-02-11T23:16:12.183Z,3.00
2023-02-11T23:18:41.119Z,8.10
2023-02-11T23:21:25.271Z,6.30
2023-02-11T23:23:57.767Z,6.20
2023-02-11T23:26:25.878Z,8.40
2023-02-11T23:28:53.929Z,9.20
2023-02-11T23:31:23.856Z,8.60
2023-02-11T23:33:52.175Z,6.60
2023-02-11T23:36:20.460Z,10.60
2023-02-11T23:38:48.566Z,9.40
2023-02-11T23:41:16.774Z,10.10
2023-02-11T23:43:44.795Z,15.70
2023-02-11T23:46:12.813Z,11.50
2023-02-11T23:48:40.725Z,15.90
2023-02-11T23:51:09.969Z,15.50
2023-02-11T23:53:38.526Z,17.40
2023-02-11T23:56:10.341Z,14.20
2023-02-11T23:58:38.310Z,13.80
